createdAt,value
2022-08-03T00:01:45.772Z,86.91
2022-08-03T00:04:14.162Z,88.20
2022-08-03T00:06:42.210Z,88.18
2022-08-03T00:09:11.904Z,86.38
2022-08-03T00:11:40.225Z,89.04
2022-08-03T00:14:09.220Z,89.65
2022-08-03T00:16:37.394Z,89.04
2022-08-03T00:19:05.472Z,88.63
2022-08-03T00:21:33.554Z,88.37
2022-08-03T00:24:01.685Z,89.19
2022-08-03T00:26:31.767Z,89.77
2022-08-03T00:28:59.835Z,89.16
2022-08-03T00:31:52.864Z,91.02
2022-08-03T00:34:15.994Z,89.81
2022-08-03T00:36:43.983Z,89.51
2022-08-03T00:39:12.016Z,89.40
2022-08-03T00:41:41.406Z,88.16
2022-08-03T00:44:09.529Z,88.56
2022-08-03T00:46:37.614Z,88.51
2022-08-03T00:49:05.831Z,88.83
2022-08-03T00:51:35.218Z,89.77
2022-08-03T00:54:03.269Z,89.76
2022-08-03T00:56:31.467Z,90.71
2022-08-03T00:59:01.482Z,91.33
2022-08-03T01:01:32.601Z,90.78
2022-08-03T01:04:01.253Z,89.92
2022-08-03T01:06:37.217Z,90.80
2022-08-03T01:09:16.287Z,91.54
2022-08-03T01:12:00.767Z,89.83
2022-08-03T01:14:38.289Z,90.36
2022-08-03T01:17:13.117Z,92.34
2022-08-03T01:19:47.871Z,91.14
2022-08-03T01:22:36.343Z,91.24
2022-08-03T01:25:11.149Z,92.28
2022-08-03T01:27:53.060Z,91.66
2022-08-03T01:30:27.366Z,90.62
2022-08-03T01:33:02.080Z,90.73
2022-08-03T01:35:38.314Z,92.04
2022-08-03T01:38:13.029Z,91.23
2022-08-03T01:40:42.754Z,92.21
2022-08-03T01:43:14.440Z,91.11
2022-08-03T01:46:04.784Z,93.20
2022-08-03T01:48:32.914Z,94.23
2022-08-03T01:51:02.012Z,91.95
2022-08-03T01:53:32.790Z,90.94
2022-08-03T01:56:01.255Z,94.58
2022-08-03T01:58:30.818Z,92.39
2022-08-03T02:01:01.582Z,94.38
2022-08-03T02:03:33.885Z,93.32
2022-08-03T02:06:59.988Z,91.19
2022-08-03T02:08:55.370Z,94.13
2022-08-03T02:11:23.655Z,94.13
2022-08-03T02:13:52.788Z,93.79
2022-08-03T02:16:23.456Z,94.56
2022-08-03T02:18:55.155Z,94.42
2022-08-03T02:21:55.567Z,94.24
2022-08-03T02:24:12.578Z,94.95
2022-08-03T02:26:45.082Z,95.66
2022-08-03T02:29:17.574Z,95.59
2022-08-03T02:31:48.669Z,94.09
2022-08-03T02:34:22.149Z,94.60
2022-08-03T02:36:52.931Z,95.43
2022-08-03T02:39:22.996Z,94.43
2022-08-03T02:41:53.477Z,94.46
2022-08-03T02:44:26.129Z,93.87
2022-08-03T02:46:59.862Z,94.85
2022-08-03T02:49:40.815Z,95.43
2022-08-03T02:52:20.996Z,94.86
2022-08-03T02:54:52.122Z,95.17
2022-08-03T02:57:22.549Z,95.00
2022-08-03T02:59:51.647Z,93.67
2022-08-03T03:02:21.171Z,95.00
2022-08-03T03:05:52.959Z,94.88
2022-08-03T03:07:51.539Z,94.30
2022-08-03T03:10:22.449Z,95.58
2022-08-03T03:12:52.226Z,94.32
2022-08-03T03:15:20.540Z,95.22
2022-08-03T03:17:50.682Z,94.51
2022-08-03T03:20:30.098Z,94.44
2022-08-03T03:23:01.089Z,94.65
2022-08-03T03:25:31.858Z,94.64
2022-08-03T03:28:00.816Z,94.36
2022-08-03T03:30:29.982Z,94.74
2022-08-03T03:32:59.239Z,94.90
2022-08-03T03:35:29.199Z,93.41
2022-08-03T03:37:58.350Z,92.70
2022-08-03T03:40:26.822Z,93.02
2022-08-03T03:42:55.259Z,93.41
2022-08-03T03:45:24.490Z,93.47
2022-08-03T03:47:52.563Z,92.89
2022-08-03T03:50:21.651Z,94.17
2022-08-03T03:52:51.070Z,94.00
2022-08-03T03:55:19.554Z,93.67
2022-08-03T03:57:47.637Z,93.76
2022-08-03T04:00:18.086Z,93.81
2022-08-03T04:02:46.773Z,94.67
2022-08-03T04:05:33.483Z,93.86
2022-08-03T04:08:24.726Z,94.19
2022-08-03T04:11:03.458Z,93.37
2022-08-03T04:13:36.360Z,93.43
2022-08-03T04:16:06.263Z,93.98
2022-08-03T04:18:37.859Z,93.99
2022-08-03T04:21:09.786Z,92.88
2022-08-03T04:23:42.640Z,93.28
2022-08-03T04:26:13.248Z,92.99
2022-08-03T04:28:44.825Z,92.69
2022-08-03T04:31:14.544Z,92.79
2022-08-03T04:33:45.161Z,93.57
2022-08-03T04:36:17.009Z,93.18
2022-08-03T04:38:56.742Z,92.29
2022-08-03T04:41:27.062Z,93.36
2022-08-03T04:43:57.493Z,93.76
2022-08-03T04:46:28.385Z,93.06
2022-08-03T04:48:58.551Z,92.17
2022-08-03T04:51:27.348Z,92.92
2022-08-03T04:53:56.699Z,92.44
2022-08-03T04:56:24.771Z,93.31
2022-08-03T04:58:52.767Z,92.39
2022-08-03T05:01:22.599Z,92.07
2022-08-03T05:03:51.591Z,92.56
2022-08-03T05:06:19.765Z,92.91
2022-08-03T05:08:53.722Z,92.34
2022-08-03T05:11:23.378Z,92.12
2022-08-03T05:13:51.494Z,92.70
2022-08-03T05:16:19.817Z,91.76
2022-08-03T05:18:48.188Z,91.62
2022-08-03T05:21:16.964Z,91.60
2022-08-03T05:23:45.631Z,92.19
2022-08-03T05:26:13.761Z,92.43
2022-08-03T05:28:50.794Z,91.44
2022-08-03T05:31:20.330Z,92.34
2022-08-03T05:33:49.117Z,91.75
2022-08-03T05:36:17.358Z,92.79
2022-08-03T05:38:45.367Z,93.67
2022-08-03T05:41:22.132Z,93.31
2022-08-03T05:43:54.543Z,93.18
2022-08-03T05:46:23.273Z,93.59
2022-08-03T05:48:51.443Z,92.69
2022-08-03T05:51:19.577Z,93.40
2022-08-03T05:53:47.698Z,94.38
2022-08-03T05:56:16.813Z,92.40
2022-08-03T05:58:46.555Z,92.59
2022-08-03T06:01:16.401Z,93.05
2022-08-03T06:03:44.524Z,93.79
2022-08-03T06:06:12.799Z,93.42
2022-08-03T06:08:41.241Z,92.85
2022-08-03T06:11:09.852Z,94.59
2022-08-03T06:13:38.537Z,92.61
2022-08-03T06:16:07.192Z,93.43
2022-08-03T06:18:37.039Z,92.81
2022-08-03T06:21:09.519Z,92.48
2022-08-03T06:23:52.752Z,92.98
2022-08-03T06:26:23.477Z,92.25
2022-08-03T06:28:53.923Z,92.42
2022-08-03T06:31:32.483Z,92.20
2022-08-03T06:34:30.462Z,92.72
2022-08-03T06:37:01.255Z,92.53
2022-08-03T06:39:29.570Z,92.16
2022-08-03T06:41:58.136Z,92.68
2022-08-03T06:44:26.225Z,92.71
2022-08-03T06:46:54.406Z,91.84
2022-08-03T06:49:24.177Z,92.67
2022-08-03T06:52:04.505Z,91.95
2022-08-03T06:54:42.089Z,92.22
2022-08-03T06:57:11.730Z,91.79
2022-08-03T07:00:09.903Z,92.26
2022-08-03T07:02:28.362Z,91.60
2022-08-03T07:04:58.418Z,91.09
2022-08-03T07:07:26.827Z,91.89
2022-08-03T07:09:57.019Z,90.94
2022-08-03T07:12:30.760Z,91.00
2022-08-03T07:15:01.681Z,90.79
2022-08-03T07:17:33.027Z,91.25
2022-08-03T07:20:04.761Z,91.28
2022-08-03T07:22:32.967Z,91.70
2022-08-03T07:25:00.986Z,90.36
2022-08-03T07:27:30.426Z,90.82
2022-08-03T07:29:59.460Z,90.48
2022-08-03T07:32:28.511Z,90.63
2022-08-03T07:35:00.546Z,90.32
2022-08-03T07:37:31.869Z,89.52
2022-08-03T07:40:00.449Z,90.66
2022-08-03T07:42:28.839Z,89.63
2022-08-03T07:44:57.516Z,89.99
2022-08-03T07:47:35.563Z,89.57
2022-08-03T07:50:06.679Z,89.14
2022-08-03T07:52:51.795Z,89.91
2022-08-03T07:55:21.224Z,89.86
2022-08-03T07:58:00.300Z,89.93
2022-08-03T08:00:28.629Z,88.86
2022-08-03T08:02:56.747Z,89.08
2022-08-03T08:05:25.229Z,89.37
2022-08-03T08:07:54.676Z,89.79
2022-08-03T08:10:22.741Z,89.63
2022-08-03T08:12:51.506Z,89.09
2022-08-03T08:15:21.853Z,89.22
2022-08-03T08:17:52.020Z,89.49
2022-08-03T08:20:27.686Z,89.65
2022-08-03T08:23:01.106Z,90.05
2022-08-03T08:25:31.650Z,89.66
2022-08-03T08:28:29.925Z,88.89
2022-08-03T08:30:51.009Z,88.77
2022-08-03T08:33:23.570Z,88.92
2022-08-03T08:35:54.356Z,88.82
2022-08-03T08:38:24.164Z,88.90
2022-08-03T08:40:55.618Z,89.12
2022-08-03T08:43:23.833Z,88.76
2022-08-03T08:45:55.388Z,87.50
2022-08-03T08:48:25.945Z,86.93
2022-08-03T08:50:55.499Z,87.02
2022-08-03T08:53:27.904Z,87.56
2022-08-03T08:56:00.973Z,86.35
2022-08-03T08:58:32.616Z,86.16
2022-08-03T09:01:00.884Z,85.84
2022-08-03T09:03:30.809Z,84.73
2022-08-03T09:06:02.346Z,84.24
2022-08-03T09:08:33.760Z,84.01
2022-08-03T09:11:02.098Z,84.32
2022-08-03T09:13:30.602Z,84.42
2022-08-03T09:16:11.739Z,84.21
2022-08-03T09:18:40.535Z,83.23
2022-08-03T09:21:37.272Z,82.92
2022-08-03T09:24:16.367Z,82.81
2022-08-03T09:26:53.849Z,83.07
2022-08-03T09:29:22.771Z,82.29
2022-08-03T09:35:54.085Z,81.43
2022-08-03T09:46:57.341Z,79.68
2022-08-03T09:49:26.170Z,80.31
2022-08-03T09:52:32.823Z,76.69
2022-08-03T09:54:45.100Z,76.58
2022-08-03T09:57:23.431Z,75.61
2022-08-03T10:00:38.597Z,76.23
2022-08-03T10:03:08.375Z,74.52
2022-08-03T10:05:59.717Z,73.95
2022-08-03T10:08:28.547Z,73.71
2022-08-03T10:10:58.750Z,73.59
2022-08-03T10:13:27.237Z,72.51
2022-08-03T10:16:25.205Z,73.11
2022-08-03T10:18:45.118Z,71.89
2022-08-03T10:21:18.265Z,69.30
2022-08-03T10:23:47.947Z,68.88
2022-08-03T10:26:20.454Z,70.94
2022-08-03T10:28:51.293Z,68.75
2022-08-03T10:31:58.760Z,67.29
2022-08-03T10:34:35.290Z,67.82
2022-08-03T10:37:10.149Z,66.57
2022-08-03T10:39:38.523Z,67.11
2022-08-03T10:42:14.460Z,66.06
2022-08-03T10:44:43.952Z,66.58
2022-08-03T10:47:13.039Z,65.75
2022-08-03T10:49:43.446Z,66.09
2022-08-03T10:52:13.634Z,66.16
2022-08-03T10:55:55.327Z,66.41
2022-08-03T10:59:12.332Z,67.44
2022-08-03T11:01:59.945Z,66.37
2022-08-03T11:04:29.934Z,67.85
2022-08-03T11:07:26.931Z,67.91
2022-08-03T11:09:56.352Z,67.95
2022-08-03T11:16:22.371Z,64.15
2022-08-03T11:18:58.571Z,63.15
2022-08-03T11:22:02.895Z,62.99
2022-08-03T11:25:04.611Z,62.33
2022-08-03T11:27:34.545Z,61.86
2022-08-03T11:30:07.871Z,61.90
2022-08-03T11:33:01.884Z,61.51
2022-08-03T11:35:33.889Z,62.36
2022-08-03T11:38:14.449Z,61.23
2022-08-03T11:40:46.269Z,61.34
2022-08-03T11:43:46.394Z,62.49
2022-08-03T11:46:28.508Z,61.02
2022-08-03T11:49:09.754Z,60.83
2022-08-03T11:52:29.050Z,61.67
2022-08-03T11:55:03.825Z,62.13
2022-08-03T11:59:15.143Z,62.20
2022-08-03T12:00:48.861Z,62.00
2022-08-03T12:03:18.364Z,61.65
2022-08-03T12:05:52.222Z,61.54
2022-08-03T12:08:32.168Z,61.35
2022-08-03T12:11:02.342Z,61.73
2022-08-03T12:14:44.926Z,62.52
2022-08-03T12:16:30.893Z,62.28
2022-08-03T12:19:00.451Z,61.95
2022-08-03T12:21:29.696Z,61.88
2022-08-03T12:24:00.409Z,61.53
2022-08-03T12:26:29.399Z,60.62
2022-08-03T12:28:59.192Z,59.15
2022-08-03T12:31:27.582Z,60.04
2022-08-03T12:33:59.049Z,58.28
2022-08-03T12:36:27.946Z,58.71
2022-08-03T12:38:57.978Z,59.49
2022-08-03T12:41:32.017Z,58.42
2022-08-03T12:44:03.385Z,57.36
2022-08-03T12:46:33.310Z,57.04
2022-08-03T12:49:04.134Z,56.11
2022-08-03T12:51:34.257Z,55.52
2022-08-03T12:54:03.149Z,57.17
2022-08-03T12:56:31.791Z,56.18
2022-08-03T12:59:01.304Z,56.41
2022-08-03T13:01:38.513Z,56.41
2022-08-03T13:04:33.316Z,57.02
2022-08-03T13:07:03.539Z,55.96
2022-08-03T13:09:42.681Z,56.12
2022-08-03T13:12:12.523Z,56.80
2022-08-03T13:14:42.408Z,56.46
2022-08-03T13:17:11.680Z,56.92
2022-08-03T13:19:41.327Z,55.84
2022-08-03T13:22:13.557Z,55.62
2022-08-03T13:24:42.076Z,56.43
2022-08-03T13:28:04.705Z,55.23
2022-08-03T13:30:00.430Z,55.80
2022-08-03T13:32:28.501Z,55.05
2022-08-03T13:35:37.283Z,54.87
2022-08-03T13:38:05.574Z,55.04
2022-08-03T13:40:41.533Z,55.21
2022-08-03T13:43:10.149Z,55.61
2022-08-03T13:45:40.171Z,54.87
2022-08-03T13:51:58.159Z,54.99
2022-08-03T13:54:30.985Z,55.45
2022-08-03T14:00:52.993Z,55.36
2022-08-03T14:03:21.380Z,55.53
2022-08-03T14:05:49.560Z,55.86
2022-08-03T14:08:18.285Z,55.50
2022-08-03T14:10:46.794Z,55.61
2022-08-03T14:13:18.031Z,54.96
2022-08-03T14:20:37.386Z,56.14
2022-08-03T14:23:04.439Z,55.21
2022-08-03T14:25:43.001Z,55.42
2022-08-03T14:28:37.764Z,54.90
2022-08-03T14:31:08.422Z,55.36
2022-08-03T14:33:54.740Z,55.01
2022-08-03T14:40:56.638Z,54.35
2022-08-03T14:43:34.078Z,54.79
2022-08-03T14:46:02.736Z,55.20
2022-08-03T14:54:50.547Z,54.65
2022-08-03T14:57:21.666Z,55.69
2022-08-03T14:59:56.317Z,54.36
2022-08-03T15:02:25.835Z,54.57
2022-08-03T15:04:54.285Z,55.36
2022-08-03T15:07:22.822Z,55.10
2022-08-03T15:09:51.182Z,54.88
2022-08-03T15:12:19.658Z,55.04
2022-08-03T15:14:49.528Z,55.18
2022-08-03T15:17:18.260Z,54.51
2022-08-03T15:20:03.403Z,54.68
2022-08-03T15:22:35.869Z,54.40
2022-08-03T15:26:02.504Z,54.75
2022-08-03T15:28:03.540Z,55.06
2022-08-03T15:30:37.086Z,54.61
2022-08-03T15:33:07.454Z,54.65
2022-08-03T15:35:35.797Z,55.05
2022-08-03T15:38:09.016Z,55.25
2022-08-03T15:41:03.244Z,54.24
2022-08-03T15:43:40.858Z,55.03
2022-08-03T15:46:29.252Z,54.56
2022-08-03T15:48:58.113Z,55.12
2022-08-03T15:51:30.110Z,54.80
2022-08-03T15:54:00.468Z,54.93
2022-08-03T15:56:29.296Z,55.05
2022-08-03T15:59:12.960Z,54.58
2022-08-03T16:01:46.053Z,55.03
2022-08-03T16:04:16.768Z,54.56
2022-08-03T16:06:45.059Z,55.10
2022-08-03T16:09:23.508Z,54.54
2022-08-03T16:12:03.141Z,54.46
2022-08-03T16:14:43.379Z,55.28
2022-08-03T16:17:22.944Z,54.97
2022-08-03T16:19:54.743Z,55.60
2022-08-03T16:22:24.073Z,55.71
2022-08-03T16:24:53.170Z,55.99
2022-08-03T16:27:37.062Z,54.98
2022-08-03T16:30:12.931Z,56.21
2022-08-03T16:32:42.758Z,55.27
2022-08-03T16:35:19.866Z,54.90
2022-08-03T16:37:56.909Z,54.88
2022-08-03T16:40:26.066Z,54.19
2022-08-03T16:42:54.402Z,54.49
2022-08-03T16:45:25.621Z,54.52
2022-08-03T16:48:05.703Z,54.64
2022-08-03T16:50:35.460Z,54.38
2022-08-03T16:53:08.852Z,54.53
2022-08-03T16:55:52.039Z,55.15
2022-08-03T16:58:34.742Z,54.67
2022-08-03T17:01:22.265Z,54.88
2022-08-03T17:04:13.518Z,55.38
2022-08-03T17:06:47.118Z,55.71
2022-08-03T17:09:23.302Z,55.34
2022-08-03T17:11:52.384Z,54.64
2022-08-03T17:14:28.272Z,55.58
2022-08-03T17:17:01.621Z,55.65
2022-08-03T17:19:35.102Z,56.08
2022-08-03T17:22:20.502Z,56.20
2022-08-03T17:24:54.784Z,56.46
2022-08-03T17:28:50.424Z,56.28
2022-08-03T17:30:25.189Z,56.50
2022-08-03T17:32:57.536Z,55.95
2022-08-03T17:35:36.795Z,55.55
2022-08-03T17:38:12.104Z,56.66
2022-08-03T17:40:47.901Z,56.69
2022-08-03T17:44:12.872Z,56.54
2022-08-03T17:46:11.152Z,56.92
2022-08-03T17:48:41.981Z,56.98
2022-08-03T17:51:17.907Z,56.84
2022-08-03T17:53:55.179Z,57.37
2022-08-03T17:56:42.531Z,57.18
2022-08-03T17:59:50.669Z,56.88
2022-08-03T18:06:11.747Z,57.59
2022-08-03T18:08:28.934Z,57.79
2022-08-03T18:11:03.576Z,58.22
2022-08-03T18:13:59.442Z,58.52
2022-08-03T18:16:34.532Z,58.38
2022-08-03T18:19:09.274Z,59.18
2022-08-03T18:22:03.366Z,58.89
2022-08-03T18:24:30.211Z,58.71
2022-08-03T18:27:03.149Z,58.82
2022-08-03T18:29:34.195Z,58.76
2022-08-03T18:32:12.973Z,58.70
2022-08-03T18:37:52.181Z,59.31
2022-08-03T18:40:25.200Z,59.95
2022-08-03T18:42:57.242Z,60.24
2022-08-03T18:45:55.649Z,60.58
2022-08-03T18:48:26.982Z,59.97
2022-08-03T18:51:03.243Z,61.10
2022-08-03T18:54:01.846Z,61.24
2022-08-03T18:56:44.102Z,60.92
2022-08-03T18:59:29.998Z,61.32
2022-08-03T19:02:09.195Z,60.86
2022-08-03T19:04:45.807Z,61.70
2022-08-03T19:07:23.350Z,61.96
2022-08-03T19:09:55.587Z,62.55
2022-08-03T19:12:39.555Z,61.88
2022-08-03T19:15:12.661Z,61.94
2022-08-03T19:17:53.033Z,62.51
2022-08-03T19:20:26.343Z,63.01
2022-08-03T19:22:57.186Z,63.59
2022-08-03T19:25:34.743Z,65.84
2022-08-03T19:28:08.579Z,65.37
2022-08-03T19:30:40.721Z,64.28
2022-08-03T19:33:18.487Z,65.91
2022-08-03T19:36:15.280Z,66.48
2022-08-03T19:39:12.835Z,66.25
2022-08-03T19:41:51.433Z,66.92
2022-08-03T19:44:31.213Z,67.64
2022-08-03T19:47:10.030Z,66.86
2022-08-03T19:50:06.302Z,66.90
2022-08-03T19:52:31.657Z,65.74
2022-08-03T19:55:06.320Z,68.53
2022-08-03T19:57:36.857Z,67.67
2022-08-03T20:00:10.423Z,66.14
2022-08-03T20:02:39.880Z,66.62
2022-08-03T20:05:11.987Z,67.72
2022-08-03T20:07:48.058Z,67.98
2022-08-03T20:10:18.470Z,68.16
2022-08-03T20:12:48.570Z,68.39
2022-08-03T20:15:31.156Z,68.87
2022-08-03T20:18:00.551Z,67.84
2022-08-03T20:20:32.213Z,68.47
2022-08-03T20:23:06.789Z,69.47
2022-08-03T20:25:57.413Z,70.87
2022-08-03T20:28:34.026Z,70.55
2022-08-03T20:31:06.042Z,71.73
2022-08-03T20:33:46.065Z,70.65
2022-08-03T20:36:17.802Z,70.53
2022-08-03T20:42:28.792Z,69.39
2022-08-03T20:45:06.060Z,70.05
2022-08-03T20:47:50.906Z,70.42
2022-08-03T20:50:22.450Z,71.94
2022-08-03T20:52:58.567Z,70.69
2022-08-03T20:58:20.573Z,70.32
2022-08-03T21:00:53.371Z,69.73
2022-08-03T21:03:24.188Z,70.07
2022-08-03T21:06:14.905Z,69.67
2022-08-03T21:08:48.234Z,72.32
2022-08-03T21:11:19.145Z,70.78
2022-08-03T21:12:56.490Z,57.06
2022-08-03T21:12:58.523Z,59.39
2022-08-03T21:13:13.763Z,70.54
2022-08-03T21:13:13.848Z,70.06
2022-08-03T21:13:53.126Z,69.54
2022-08-03T21:16:27.167Z,69.82
2022-08-03T21:19:00.474Z,70.09
2022-08-03T21:21:32.161Z,70.35
2022-08-03T21:24:04.333Z,71.65
2022-08-03T21:26:34.614Z,70.44
2022-08-03T21:29:02.978Z,70.77
2022-08-03T21:31:31.183Z,71.89
2022-08-03T21:34:03.202Z,71.25
2022-08-03T21:36:33.377Z,71.36
2022-08-03T21:39:02.210Z,71.97
2022-08-03T21:41:33.977Z,70.73
2022-08-03T21:44:04.012Z,72.72
2022-08-03T21:46:36.824Z,72.68
2022-08-03T21:50:06.893Z,73.04
2022-08-03T21:52:05.087Z,72.59
2022-08-03T21:54:36.308Z,72.92
2022-08-03T21:57:06.958Z,73.08
2022-08-03T21:59:38.450Z,76.13
2022-08-03T22:02:20.058Z,72.96
2022-08-03T22:04:57.060Z,74.27
2022-08-03T22:07:27.454Z,75.48
2022-08-03T22:09:56.707Z,75.45
2022-08-03T22:12:27.211Z,73.97
2022-08-03T22:15:01.098Z,74.15
2022-08-03T22:17:55.571Z,75.91
2022-08-03T22:20:22.737Z,76.59
2022-08-03T22:22:57.291Z,74.58
2022-08-03T22:25:29.914Z,76.15
2022-08-03T22:27:59.626Z,75.67
2022-08-03T22:30:28.361Z,75.39
2022-08-03T22:32:58.021Z,75.98
2022-08-03T22:35:28.697Z,75.66
2022-08-03T22:37:58.379Z,75.00
2022-08-03T22:40:29.276Z,77.22
2022-08-03T22:42:58.554Z,76.09
2022-08-03T22:46:07.385Z,76.95
2022-08-03T22:48:22.804Z,79.14
2022-08-03T22:50:52.803Z,78.10
2022-08-03T22:53:26.501Z,78.67
2022-08-03T22:55:57.231Z,79.68
2022-08-03T22:58:25.948Z,79.69
2022-08-03T23:00:58.720Z,80.15
2022-08-03T23:04:00.986Z,78.63
2022-08-03T23:06:28.225Z,78.17
2022-08-03T23:08:56.979Z,74.32
2022-08-03T23:11:26.247Z,72.87
2022-08-03T23:13:57.707Z,71.96
2022-08-03T23:16:28.601Z,72.32
2022-08-03T23:19:13.124Z,71.81
2022-08-03T23:22:00.277Z,71.85
2022-08-03T23:24:34.513Z,71.65
2022-08-03T23:27:05.092Z,71.27
2022-08-03T23:29:34.817Z,70.78
2022-08-03T23:32:04.032Z,70.60
2022-08-03T23:34:53.207Z,70.68
2022-08-03T23:37:23.419Z,70.74
2022-08-03T23:39:53.741Z,70.71
2022-08-03T23:42:24.282Z,67.85
2022-08-03T23:44:56.538Z,68.16
2022-08-03T23:47:46.292Z,66.19
2022-08-03T23:50:16.585Z,66.71
2022-08-03T23:53:12.415Z,65.86
2022-08-03T23:55:54.311Z,66.86
2022-08-03T23:58:47.117Z,66.22
